Chipola, Louisiana
Current Conditions -  °F | °C
As of 11:53 AM on Thursday 23 Oct 2014 (Local Time) from KMCB Reporting Station
Clear Clear  
Wind Chill: 67°   Ceiling: Unl
Heat Index: 67°   Visibility: 10mi
Dew Point: 44°   Wind: 8mph
Humidity: 44%   Direction: 110°ESE
Pressure: 30.13"   Gusts: NA
Location:  30.8839°N, 90.7496°W
Report Text: KMCB 231653Z AUTO 11007KT 10SM CLR 19/07 A3013 RMK AO2 SLP198 T01940067
Loading
Personal Weather Stations






























Interactive Weather Map
Tropical Storm Tracking
New forecast layout! Learn more

10-Day Weather Forecast

Advertisements
Track Severe Weather on mobile